sensor_id;sensor_type;location;lat;lon;timestamp;P1;durP1;ratioP1;P2;durP2;ratioP2
60853;SDS011;48554;50.766;2.900;2022-11-15T00:01:25;3.90;;;1.77;;
60853;SDS011;48554;50.766;2.900;2022-11-15T00:03:46;4.38;;;2.10;;
60853;SDS011;48554;50.766;2.900;2022-11-15T00:06:10;3.42;;;1.50;;
60853;SDS011;48554;50.766;2.900;2022-11-15T00:08:31;3.75;;;1.73;;
60853;SDS011;48554;50.766;2.900;2022-11-15T00:10:56;4.63;;;1.95;;
60853;SDS011;48554;50.766;2.900;2022-11-15T00:13:17;3.47;;;1.88;;
60853;SDS011;48554;50.766;2.900;2022-11-15T00:15:40;4.38;;;1.65;;
60853;SDS011;48554;50.766;2.900;2022-11-15T00:18:01;3.50;;;1.73;;
60853;SDS011;48554;50.766;2.900;2022-11-15T00:20:21;2.80;;;1.50;;
60853;SDS011;48554;50.766;2.900;2022-11-15T00:22:42;3.25;;;1.60;;
60853;SDS011;48554;50.766;2.900;2022-11-15T00:25:02;2.90;;;1.48;;
60853;SDS011;48554;50.766;2.900;2022-11-15T00:27:22;2.90;;;1.40;;
60853;SDS011;48554;50.766;2.900;2022-11-15T00:29:43;2.30;;;1.40;;
60853;SDS011;48554;50.766;2.900;2022-11-15T00:32:03;2.97;;;1.45;;
60853;SDS011;48554;50.766;2.900;2022-11-15T00:34:23;3.17;;;1.67;;
60853;SDS011;48554;50.766;2.900;2022-11-15T00:36:43;2.78;;;1.50;;
60853;SDS011;48554;50.766;2.900;2022-11-15T00:39:04;2.83;;;1.40;;
60853;SDS011;48554;50.766;2.900;2022-11-15T00:41:24;3.25;;;1.50;;
60853;SDS011;48554;50.766;2.900;2022-11-15T00:43:45;2.35;;;1.40;;
60853;SDS011;48554;50.766;2.900;2022-11-15T00:46:05;2.47;;;1.30;;
60853;SDS011;48554;50.766;2.900;2022-11-15T00:48:25;2.83;;;1.23;;
60853;SDS011;48554;50.766;2.900;2022-11-15T00:50:46;2.17;;;1.20;;
60853;SDS011;48554;50.766;2.900;2022-11-15T00:53:06;3.72;;;1.27;;
60853;SDS011;48554;50.766;2.900;2022-11-15T00:55:27;2.38;;;1.30;;
60853;SDS011;48554;50.766;2.900;2022-11-15T00:57:47;2.17;;;1.10;;
60853;SDS011;48554;50.766;2.900;2022-11-15T01:00:07;2.67;;;1.30;;
60853;SDS011;48554;50.766;2.900;2022-11-15T01:02:28;2.03;;;1.27;;
60853;SDS011;48554;50.766;2.900;2022-11-15T01:04:48;3.30;;;1.33;;
60853;SDS011;48554;50.766;2.900;2022-11-15T01:07:08;3.42;;;1.40;;
60853;SDS011;48554;50.766;2.900;2022-11-15T01:09:29;2.97;;;1.40;;
60853;SDS011;48554;50.766;2.900;2022-11-15T01:11:49;2.20;;;0.80;;
60853;SDS011;48554;50.766;2.900;2022-11-15T01:14:09;2.83;;;1.37;;
60853;SDS011;48554;50.766;2.900;2022-11-15T01:16:30;1.38;;;1.08;;
60853;SDS011;48554;50.766;2.900;2022-11-15T01:18:50;2.70;;;1.17;;
60853;SDS011;48554;50.766;2.900;2022-11-15T01:21:13;2.97;;;1.20;;
60853;SDS011;48554;50.766;2.900;2022-11-15T01:23:35;4.45;;;1.13;;
60853;SDS011;48554;50.766;2.900;2022-11-15T01:25:59;2.63;;;1.20;;
60853;SDS011;48554;50.766;2.900;2022-11-15T01:28:20;1.67;;;1.10;;
60853;SDS011;48554;50.766;2.900;2022-11-15T01:30:40;3.35;;;1.15;;
60853;SDS011;48554;50.766;2.900;2022-11-15T01:33:00;1.65;;;0.82;;
60853;SDS011;48554;50.766;2.900;2022-11-15T01:35:20;1.60;;;0.90;;
60853;SDS011;48554;50.766;2.900;2022-11-15T01:37:41;3.15;;;1.30;;
60853;SDS011;48554;50.766;2.900;2022-11-15T01:40:02;1.63;;;0.93;;
60853;SDS011;48554;50.766;2.900;2022-11-15T01:42:22;2.53;;;1.00;;
60853;SDS011;48554;50.766;2.900;2022-11-15T01:44:47;2.47;;;1.33;;
60853;SDS011;48554;50.766;2.900;2022-11-15T01:47:11;4.38;;;1.05;;
60853;SDS011;48554;50.766;2.900;2022-11-15T01:49:35;2.05;;;1.10;;
60853;SDS011;48554;50.766;2.900;2022-11-15T01:51:59;1.80;;;0.98;;
60853;SDS011;48554;50.766;2.900;2022-11-15T01:54:21;1.88;;;1.02;;
60853;SDS011;48554;50.766;2.900;2022-11-15T01:56:49;2.45;;;1.02;;
60853;SDS011;48554;50.766;2.900;2022-11-15T01:59:13;1.92;;;0.85;;
60853;SDS011;48554;50.766;2.900;2022-11-15T02:01:34;1.70;;;0.90;;
60853;SDS011;48554;50.766;2.900;2022-11-15T02:04:02;0.93;;;0.82;;
60853;SDS011;48554;50.766;2.900;2022-11-15T02:06:28;2.25;;;0.98;;
60853;SDS011;48554;50.766;2.900;2022-11-15T02:08:50;2.50;;;1.10;;
60853;SDS011;48554;50.766;2.900;2022-11-15T02:11:11;2.08;;;1.13;;
60853;SDS011;48554;50.766;2.900;2022-11-15T02:13:31;2.77;;;1.03;;
60853;SDS011;48554;50.766;2.900;2022-11-15T02:15:54;1.33;;;0.70;;
60853;SDS011;48554;50.766;2.900;2022-11-15T02:18:26;3.13;;;1.02;;
60853;SDS011;48554;50.766;2.900;2022-11-15T02:20:56;1.85;;;0.80;;
60853;SDS011;48554;50.766;2.900;2022-11-15T02:37:03;2.67;;;1.00;;
60853;SDS011;48554;50.766;2.900;2022-11-15T02:41:59;1.38;;;0.52;;
60853;SDS011;48554;50.766;2.900;2022-11-15T02:46:57;1.33;;;0.50;;
60853;SDS011;48554;50.766;2.900;2022-11-15T02:49:20;2.42;;;0.88;;
60853;SDS011;48554;50.766;2.900;2022-11-15T02:51:41;1.38;;;0.80;;
60853;SDS011;48554;50.766;2.900;2022-11-15T02:54:04;1.35;;;0.50;;
60853;SDS011;48554;50.766;2.900;2022-11-15T02:56:24;2.03;;;1.05;;
60853;SDS011;48554;50.766;2.900;2022-11-15T03:01:48;1.42;;;0.65;;
60853;SDS011;48554;50.766;2.900;2022-11-15T03:06:52;1.35;;;0.55;;
60853;SDS011;48554;50.766;2.900;2022-11-15T03:11:46;1.25;;;0.65;;
60853;SDS011;48554;50.766;2.900;2022-11-15T03:14:26;1.83;;;0.73;;
60853;SDS011;48554;50.766;2.900;2022-11-15T03:16:51;0.88;;;0.60;;
60853;SDS011;48554;50.766;2.900;2022-11-15T03:21:45;1.40;;;0.50;;
60853;SDS011;48554;50.766;2.900;2022-11-15T03:24:07;1.75;;;0.60;;
60853;SDS011;48554;50.766;2.900;2022-11-15T03:26:29;0.90;;;0.40;;
60853;SDS011;48554;50.766;2.900;2022-11-15T03:28:50;2.28;;;0.75;;
60853;SDS011;48554;50.766;2.900;2022-11-15T03:31:15;0.30;;;0.30;;
60853;SDS011;48554;50.766;2.900;2022-11-15T03:33:39;2.55;;;0.50;;
60853;SDS011;48554;50.766;2.900;2022-11-15T03:36:00;0.73;;;0.57;;
60853;SDS011;48554;50.766;2.900;2022-11-15T03:38:24;2.40;;;0.90;;
60853;SDS011;48554;50.766;2.900;2022-11-15T03:40:53;2.47;;;0.63;;
60853;SDS011;48554;50.766;2.900;2022-11-15T03:43:33;1.77;;;0.52;;
60853;SDS011;48554;50.766;2.900;2022-11-15T03:46:02;0.40;;;0.40;;
60853;SDS011;48554;50.766;2.900;2022-11-15T03:48:30;0.90;;;0.47;;
60853;SDS011;48554;50.766;2.900;2022-11-15T03:50:54;1.95;;;0.70;;
60853;SDS011;48554;50.766;2.900;2022-11-15T03:53:16;0.93;;;0.45;;
60853;SDS011;48554;50.766;2.900;2022-11-15T03:55:37;1.25;;;0.40;;
60853;SDS011;48554;50.766;2.900;2022-11-15T03:57:57;1.20;;;0.63;;
60853;SDS011;48554;50.766;2.900;2022-11-15T04:00:19;0.82;;;0.50;;
60853;SDS011;48554;50.766;2.900;2022-11-15T04:02:39;0.85;;;0.50;;
60853;SDS011;48554;50.766;2.900;2022-11-15T04:05:00;1.33;;;0.50;;
60853;SDS011;48554;50.766;2.900;2022-11-15T04:07:20;2.23;;;0.60;;
60853;SDS011;48554;50.766;2.900;2022-11-15T04:09:40;1.67;;;0.50;;
60853;SDS011;48554;50.766;2.900;2022-11-15T04:12:00;0.97;;;0.47;;
60853;SDS011;48554;50.766;2.900;2022-11-15T04:14:21;1.15;;;0.50;;
60853;SDS011;48554;50.766;2.900;2022-11-15T04:16:41;1.73;;;0.60;;
60853;SDS011;48554;50.766;2.900;2022-11-15T04:19:01;2.97;;;0.73;;
60853;SDS011;48554;50.766;2.900;2022-11-15T04:21:21;0.82;;;0.52;;
60853;SDS011;48554;50.766;2.900;2022-11-15T04:23:42;3.07;;;0.60;;
60853;SDS011;48554;50.766;2.900;2022-11-15T04:26:03;4.03;;;0.63;;
60853;SDS011;48554;50.766;2.900;2022-11-15T04:28:25;1.42;;;0.60;;
60853;SDS011;48554;50.766;2.900;2022-11-15T04:30:45;0.70;;;0.50;;
60853;SDS011;48554;50.766;2.900;2022-11-15T04:33:06;2.13;;;0.60;;
60853;SDS011;48554;50.766;2.900;2022-11-15T04:35:26;2.10;;;0.70;;
60853;SDS011;48554;50.766;2.900;2022-11-15T04:37:46;1.50;;;0.63;;
60853;SDS011;48554;50.766;2.900;2022-11-15T04:40:07;2.90;;;0.85;;
60853;SDS011;48554;50.766;2.900;2022-11-15T04:42:28;1.88;;;0.80;;
60853;SDS011;48554;50.766;2.900;2022-11-15T04:44:48;1.50;;;0.70;;
60853;SDS011;48554;50.766;2.900;2022-11-15T04:47:08;1.23;;;0.50;;
60853;SDS011;48554;50.766;2.900;2022-11-15T04:49:28;0.60;;;0.40;;
60853;SDS011;48554;50.766;2.900;2022-11-15T04:51:48;0.50;;;0.40;;
60853;SDS011;48554;50.766;2.900;2022-11-15T04:54:09;1.30;;;0.60;;
60853;SDS011;48554;50.766;2.900;2022-11-15T04:56:29;1.15;;;0.45;;
60853;SDS011;48554;50.766;2.900;2022-11-15T04:58:49;1.52;;;0.57;;
60853;SDS011;48554;50.766;2.900;2022-11-15T05:01:13;0.90;;;0.60;;
60853;SDS011;48554;50.766;2.900;2022-11-15T05:03:34;2.67;;;0.60;;
60853;SDS011;48554;50.766;2.900;2022-11-15T05:05:54;2.40;;;0.57;;
60853;SDS011;48554;50.766;2.900;2022-11-15T05:08:14;2.45;;;0.55;;
60853;SDS011;48554;50.766;2.900;2022-11-15T05:10:35;1.25;;;0.52;;
60853;SDS011;48554;50.766;2.900;2022-11-15T05:12:55;1.73;;;0.57;;
60853;SDS011;48554;50.766;2.900;2022-11-15T05:15:15;2.00;;;0.40;;
60853;SDS011;48554;50.766;2.900;2022-11-15T05:17:35;0.67;;;0.50;;
60853;SDS011;48554;50.766;2.900;2022-11-15T05:19:56;0.40;;;0.38;;
60853;SDS011;48554;50.766;2.900;2022-11-15T05:22:16;0.57;;;0.43;;
60853;SDS011;48554;50.766;2.900;2022-11-15T05:24:36;0.73;;;0.53;;
60853;SDS011;48554;50.766;2.900;2022-11-15T05:26:57;1.70;;;0.70;;
60853;SDS011;48554;50.766;2.900;2022-11-15T05:29:17;1.93;;;0.53;;
60853;SDS011;48554;50.766;2.900;2022-11-15T05:31:39;3.03;;;0.60;;
60853;SDS011;48554;50.766;2.900;2022-11-15T05:34:00;0.80;;;0.40;;
60853;SDS011;48554;50.766;2.900;2022-11-15T05:36:31;2.15;;;0.45;;
60853;SDS011;48554;50.766;2.900;2022-11-15T05:38:55;0.32;;;0.32;;
60853;SDS011;48554;50.766;2.900;2022-11-15T05:41:17;0.32;;;0.32;;
60853;SDS011;48554;50.766;2.900;2022-11-15T05:43:40;0.98;;;0.60;;
60853;SDS011;48554;50.766;2.900;2022-11-15T05:46:03;0.47;;;0.40;;
60853;SDS011;48554;50.766;2.900;2022-11-15T05:48:24;1.02;;;0.63;;
60853;SDS011;48554;50.766;2.900;2022-11-15T05:50:45;3.33;;;0.63;;
60853;SDS011;48554;50.766;2.900;2022-11-15T05:53:06;1.42;;;0.50;;
60853;SDS011;48554;50.766;2.900;2022-11-15T05:55:27;0.32;;;0.32;;
60853;SDS011;48554;50.766;2.900;2022-11-15T05:57:48;1.53;;;0.47;;
60853;SDS011;48554;50.766;2.900;2022-11-15T06:00:08;1.80;;;0.73;;
60853;SDS011;48554;50.766;2.900;2022-11-15T06:02:29;0.83;;;0.40;;
60853;SDS011;48554;50.766;2.900;2022-11-15T06:04:49;0.63;;;0.50;;
60853;SDS011;48554;50.766;2.900;2022-11-15T06:07:10;1.20;;;0.60;;
60853;SDS011;48554;50.766;2.900;2022-11-15T06:09:30;1.75;;;0.32;;
60853;SDS011;48554;50.766;2.900;2022-11-15T06:11:50;1.75;;;0.60;;
60853;SDS011;48554;50.766;2.900;2022-11-15T06:14:11;1.87;;;0.60;;
60853;SDS011;48554;50.766;2.900;2022-11-15T06:16:31;2.05;;;0.55;;
60853;SDS011;48554;50.766;2.900;2022-11-15T06:18:51;0.53;;;0.40;;
60853;SDS011;48554;50.766;2.900;2022-11-15T06:21:11;1.10;;;0.43;;
60853;SDS011;48554;50.766;2.900;2022-11-15T06:23:32;1.53;;;0.53;;
60853;SDS011;48554;50.766;2.900;2022-11-15T06:25:57;1.70;;;0.50;;
60853;SDS011;48554;50.766;2.900;2022-11-15T06:28:17;1.17;;;0.40;;
60853;SDS011;48554;50.766;2.900;2022-11-15T06:30:38;0.30;;;0.30;;
60853;SDS011;48554;50.766;2.900;2022-11-15T06:33:01;1.20;;;0.38;;
60853;SDS011;48554;50.766;2.900;2022-11-15T06:35:23;1.52;;;0.52;;
60853;SDS011;48554;50.766;2.900;2022-11-15T06:37:43;0.90;;;0.40;;
60853;SDS011;48554;50.766;2.900;2022-11-15T06:40:03;1.80;;;0.60;;
60853;SDS011;48554;50.766;2.900;2022-11-15T06:42:24;1.37;;;0.40;;
60853;SDS011;48554;50.766;2.900;2022-11-15T06:44:44;1.57;;;0.60;;
60853;SDS011;48554;50.766;2.900;2022-11-15T06:47:05;3.83;;;0.80;;
60853;SDS011;48554;50.766;2.900;2022-11-15T06:49:25;6.27;;;1.17;;
60853;SDS011;48554;50.766;2.900;2022-11-15T06:51:45;3.77;;;1.73;;
60853;SDS011;48554;50.766;2.900;2022-11-15T06:54:05;2.13;;;1.00;;
60853;SDS011;48554;50.766;2.900;2022-11-15T06:56:25;7.65;;;1.60;;
60853;SDS011;48554;50.766;2.900;2022-11-15T06:58:46;5.57;;;1.65;;
60853;SDS011;48554;50.766;2.900;2022-11-15T07:01:07;7.60;;;2.20;;
60853;SDS011;48554;50.766;2.900;2022-11-15T07:03:29;7.55;;;2.42;;
60853;SDS011;48554;50.766;2.900;2022-11-15T07:05:53;8.20;;;2.03;;
60853;SDS011;48554;50.766;2.900;2022-11-15T07:08:14;11.45;;;2.28;;
60853;SDS011;48554;50.766;2.900;2022-11-15T07:10:35;11.02;;;2.50;;
60853;SDS011;48554;50.766;2.900;2022-11-15T07:12:55;5.15;;;1.70;;
60853;SDS011;48554;50.766;2.900;2022-11-15T07:15:16;8.98;;;1.77;;
60853;SDS011;48554;50.766;2.900;2022-11-15T07:17:38;7.03;;;1.98;;
60853;SDS011;48554;50.766;2.900;2022-11-15T07:19:58;6.27;;;2.03;;
60853;SDS011;48554;50.766;2.900;2022-11-15T07:22:18;5.77;;;2.13;;
60853;SDS011;48554;50.766;2.900;2022-11-15T07:24:38;5.25;;;2.15;;
60853;SDS011;48554;50.766;2.900;2022-11-15T07:26:59;9.23;;;2.00;;
60853;SDS011;48554;50.766;2.900;2022-11-15T07:29:19;8.43;;;2.40;;
60853;SDS011;48554;50.766;2.900;2022-11-15T07:31:39;7.30;;;1.40;;
60853;SDS011;48554;50.766;2.900;2022-11-15T07:33:59;7.87;;;2.07;;
60853;SDS011;48554;50.766;2.900;2022-11-15T07:36:20;6.47;;;1.43;;
60853;SDS011;48554;50.766;2.900;2022-11-15T07:38:40;5.00;;;1.37;;
60853;SDS011;48554;50.766;2.900;2022-11-15T07:41:03;5.23;;;1.60;;
60853;SDS011;48554;50.766;2.900;2022-11-15T07:43:24;4.78;;;1.73;;
60853;SDS011;48554;50.766;2.900;2022-11-15T07:45:45;4.43;;;1.58;;
60853;SDS011;48554;50.766;2.900;2022-11-15T07:48:05;5.32;;;1.38;;
60853;SDS011;48554;50.766;2.900;2022-11-15T07:50:26;5.70;;;1.40;;
60853;SDS011;48554;50.766;2.900;2022-11-15T07:52:47;5.80;;;1.58;;
60853;SDS011;48554;50.766;2.900;2022-11-15T07:55:07;2.50;;;1.10;;
60853;SDS011;48554;50.766;2.900;2022-11-15T07:57:28;3.97;;;1.40;;
60853;SDS011;48554;50.766;2.900;2022-11-15T07:59:49;5.03;;;1.13;;
60853;SDS011;48554;50.766;2.900;2022-11-15T08:02:09;4.22;;;1.30;;
60853;SDS011;48554;50.766;2.900;2022-11-15T08:04:29;3.63;;;0.93;;
60853;SDS011;48554;50.766;2.900;2022-11-15T08:06:50;4.15;;;1.40;;
60853;SDS011;48554;50.766;2.900;2022-11-15T08:09:10;3.15;;;0.95;;
60853;SDS011;48554;50.766;2.900;2022-11-15T08:11:30;4.57;;;1.42;;
60853;SDS011;48554;50.766;2.900;2022-11-15T08:13:50;3.70;;;1.17;;
60853;SDS011;48554;50.766;2.900;2022-11-15T08:16:11;4.73;;;0.93;;
60853;SDS011;48554;50.766;2.900;2022-11-15T08:18:31;3.33;;;1.02;;
60853;SDS011;48554;50.766;2.900;2022-11-15T08:20:51;3.17;;;0.90;;
60853;SDS011;48554;50.766;2.900;2022-11-15T08:23:12;3.57;;;1.10;;
60853;SDS011;48554;50.766;2.900;2022-11-15T08:25:32;2.50;;;0.97;;
60853;SDS011;48554;50.766;2.900;2022-11-15T08:27:55;2.30;;;0.90;;
60853;SDS011;48554;50.766;2.900;2022-11-15T08:30:17;2.78;;;1.13;;
60853;SDS011;48554;50.766;2.900;2022-11-15T08:32:37;3.33;;;0.90;;
60853;SDS011;48554;50.766;2.900;2022-11-15T08:34:57;2.53;;;0.80;;
60853;SDS011;48554;50.766;2.900;2022-11-15T08:37:17;2.63;;;0.95;;
60853;SDS011;48554;50.766;2.900;2022-11-15T08:39:38;1.00;;;0.53;;
60853;SDS011;48554;50.766;2.900;2022-11-15T08:41:58;3.97;;;0.93;;
60853;SDS011;48554;50.766;2.900;2022-11-15T08:44:18;2.60;;;0.90;;
60853;SDS011;48554;50.766;2.900;2022-11-15T08:46:39;1.83;;;0.65;;
60853;SDS011;48554;50.766;2.900;2022-11-15T08:48:59;2.60;;;0.80;;
60853;SDS011;48554;50.766;2.900;2022-11-15T08:51:19;4.57;;;0.87;;
60853;SDS011;48554;50.766;2.900;2022-11-15T08:53:40;2.63;;;0.82;;
60853;SDS011;48554;50.766;2.900;2022-11-15T08:56:01;2.93;;;1.00;;
60853;SDS011;48554;50.766;2.900;2022-11-15T08:58:21;1.92;;;0.77;;
60853;SDS011;48554;50.766;2.900;2022-11-15T09:00:42;1.57;;;1.00;;
60853;SDS011;48554;50.766;2.900;2022-11-15T09:03:05;1.43;;;0.40;;
60853;SDS011;48554;50.766;2.900;2022-11-15T09:05:26;2.00;;;0.68;;
60853;SDS011;48554;50.766;2.900;2022-11-15T09:07:46;1.80;;;0.60;;
60853;SDS011;48554;50.766;2.900;2022-11-15T09:10:07;1.67;;;0.60;;
60853;SDS011;48554;50.766;2.900;2022-11-15T09:12:27;0.87;;;0.30;;
60853;SDS011;48554;50.766;2.900;2022-11-15T09:14:48;2.45;;;0.57;;
60853;SDS011;48554;50.766;2.900;2022-11-15T09:17:08;0.88;;;0.50;;
60853;SDS011;48554;50.766;2.900;2022-11-15T09:19:28;1.55;;;0.30;;
60853;SDS011;48554;50.766;2.900;2022-11-15T09:21:49;3.87;;;0.77;;
60853;SDS011;48554;50.766;2.900;2022-11-15T09:24:09;1.45;;;0.45;;
60853;SDS011;48554;50.766;2.900;2022-11-15T09:26:29;1.98;;;0.55;;
60853;SDS011;48554;50.766;2.900;2022-11-15T09:28:49;2.05;;;0.65;;
60853;SDS011;48554;50.766;2.900;2022-11-15T09:31:10;4.25;;;0.80;;
60853;SDS011;48554;50.766;2.900;2022-11-15T09:33:30;1.67;;;0.50;;
60853;SDS011;48554;50.766;2.900;2022-11-15T09:35:51;2.65;;;0.80;;
60853;SDS011;48554;50.766;2.900;2022-11-15T09:38:11;0.30;;;0.30;;
60853;SDS011;48554;50.766;2.900;2022-11-15T09:40:31;2.28;;;0.40;;
60853;SDS011;48554;50.766;2.900;2022-11-15T09:43:02;1.25;;;0.50;;
60853;SDS011;48554;50.766;2.900;2022-11-15T09:45:34;1.38;;;0.50;;
60853;SDS011;48554;50.766;2.900;2022-11-15T09:48:06;2.15;;;0.60;;
60853;SDS011;48554;50.766;2.900;2022-11-15T09:50:34;1.63;;;0.50;;
60853;SDS011;48554;50.766;2.900;2022-11-15T09:52:58;4.97;;;0.60;;
60853;SDS011;48554;50.766;2.900;2022-11-15T09:55:19;2.47;;;0.55;;
60853;SDS011;48554;50.766;2.900;2022-11-15T09:57:54;0.40;;;0.40;;
60853;SDS011;48554;50.766;2.900;2022-11-15T10:00:56;1.27;;;0.60;;
60853;SDS011;48554;50.766;2.900;2022-11-15T10:03:15;2.58;;;0.73;;
60853;SDS011;48554;50.766;2.900;2022-11-15T10:05:39;0.40;;;0.30;;
60853;SDS011;48554;50.766;2.900;2022-11-15T10:10:43;3.50;;;0.75;;
60853;SDS011;48554;50.766;2.900;2022-11-15T10:13:13;2.08;;;0.40;;
60853;SDS011;48554;50.766;2.900;2022-11-15T10:15:41;1.83;;;0.52;;
60853;SDS011;48554;50.766;2.900;2022-11-15T10:20:57;2.03;;;0.50;;
60853;SDS011;48554;50.766;2.900;2022-11-15T10:23:20;3.53;;;0.75;;
60853;SDS011;48554;50.766;2.900;2022-11-15T10:25:42;3.45;;;0.50;;
60853;SDS011;48554;50.766;2.900;2022-11-15T10:30:37;2.97;;;0.52;;
60853;SDS011;48554;50.766;2.900;2022-11-15T10:33:08;3.05;;;1.00;;
60853;SDS011;48554;50.766;2.900;2022-11-15T10:35:33;7.60;;;0.73;;
60853;SDS011;48554;50.766;2.900;2022-11-15T10:38:09;5.50;;;1.05;;
60853;SDS011;48554;50.766;2.900;2022-11-15T10:40:30;3.38;;;0.80;;
60853;SDS011;48554;50.766;2.900;2022-11-15T10:43:04;3.72;;;0.80;;
60853;SDS011;48554;50.766;2.900;2022-11-15T10:45:32;5.72;;;0.93;;
60853;SDS011;48554;50.766;2.900;2022-11-15T10:47:53;4.07;;;0.70;;
60853;SDS011;48554;50.766;2.900;2022-11-15T10:50:33;3.33;;;1.25;;
60853;SDS011;48554;50.766;2.900;2022-11-15T10:52:54;3.75;;;0.73;;
60853;SDS011;48554;50.766;2.900;2022-11-15T10:57:38;3.90;;;0.60;;
60853;SDS011;48554;50.766;2.900;2022-11-15T11:00:44;4.20;;;0.80;;
60853;SDS011;48554;50.766;2.900;2022-11-15T11:05:25;2.25;;;0.85;;
60853;SDS011;48554;50.766;2.900;2022-11-15T11:10:23;5.07;;;1.88;;
60853;SDS011;48554;50.766;2.900;2022-11-15T11:12:43;6.07;;;1.50;;
60853;SDS011;48554;50.766;2.900;2022-11-15T11:15:09;6.40;;;0.80;;
60853;SDS011;48554;50.766;2.900;2022-11-15T11:25:56;2.33;;;0.70;;
60853;SDS011;48554;50.766;2.900;2022-11-15T11:31:05;2.20;;;0.70;;
60853;SDS011;48554;50.766;2.900;2022-11-15T11:36:15;3.25;;;0.80;;
60853;SDS011;48554;50.766;2.900;2022-11-15T11:38:49;1.77;;;0.60;;
60853;SDS011;48554;50.766;2.900;2022-11-15T11:50:05;2.10;;;0.65;;
60853;SDS011;48554;50.766;2.900;2022-11-15T11:52:15;1.85;;;0.43;;
60853;SDS011;48554;50.766;2.900;2022-11-15T11:54:47;1.55;;;0.50;;
60853;SDS011;48554;50.766;2.900;2022-11-15T11:57:37;2.45;;;0.50;;
60853;SDS011;48554;50.766;2.900;2022-11-15T12:00:38;1.35;;;0.60;;
60853;SDS011;48554;50.766;2.900;2022-11-15T12:08:15;2.25;;;0.88;;
60853;SDS011;48554;50.766;2.900;2022-11-15T12:11:08;1.48;;;0.38;;
60853;SDS011;48554;50.766;2.900;2022-11-15T12:13:34;1.67;;;0.47;;
60853;SDS011;48554;50.766;2.900;2022-11-15T12:16:29;4.63;;;0.77;;
60853;SDS011;48554;50.766;2.900;2022-11-15T12:18:50;2.13;;;0.70;;
60853;SDS011;48554;50.766;2.900;2022-11-15T12:21:14;1.80;;;0.70;;
60853;SDS011;48554;50.766;2.900;2022-11-15T12:23:54;2.17;;;0.47;;
60853;SDS011;48554;50.766;2.900;2022-11-15T12:26:21;1.88;;;0.32;;
60853;SDS011;48554;50.766;2.900;2022-11-15T12:28:50;1.67;;;0.45;;
60853;SDS011;48554;50.766;2.900;2022-11-15T12:31:24;1.08;;;0.40;;
60853;SDS011;48554;50.766;2.900;2022-11-15T12:33:55;0.43;;;0.22;;
60853;SDS011;48554;50.766;2.900;2022-11-15T12:38:50;1.40;;;0.52;;
60853;SDS011;48554;50.766;2.900;2022-11-15T12:41:16;1.17;;;0.40;;
60853;SDS011;48554;50.766;2.900;2022-11-15T12:43:38;0.88;;;0.20;;
60853;SDS011;48554;50.766;2.900;2022-11-15T12:46:03;0.80;;;0.20;;
60853;SDS011;48554;50.766;2.900;2022-11-15T12:55:43;1.95;;;0.30;;
60853;SDS011;48554;50.766;2.900;2022-11-15T12:58:27;3.78;;;0.80;;
60853;SDS011;48554;50.766;2.900;2022-11-15T13:00:58;0.70;;;0.40;;
60853;SDS011;48554;50.766;2.900;2022-11-15T13:03:20;1.75;;;0.60;;
60853;SDS011;48554;50.766;2.900;2022-11-15T13:08:02;1.92;;;0.55;;
60853;SDS011;48554;50.766;2.900;2022-11-15T13:17:51;1.80;;;0.55;;
60853;SDS011;48554;50.766;2.900;2022-11-15T13:25:02;1.73;;;0.60;;
60853;SDS011;48554;50.766;2.900;2022-11-15T13:27:23;0.73;;;0.35;;
60853;SDS011;48554;50.766;2.900;2022-11-15T13:29:44;2.38;;;0.75;;
60853;SDS011;48554;50.766;2.900;2022-11-15T13:32:09;1.90;;;0.43;;
60853;SDS011;48554;50.766;2.900;2022-11-15T13:34:32;1.00;;;0.40;;
60853;SDS011;48554;50.766;2.900;2022-11-15T13:36:53;2.28;;;0.70;;
60853;SDS011;48554;50.766;2.900;2022-11-15T13:41:48;0.75;;;0.38;;
60853;SDS011;48554;50.766;2.900;2022-11-15T13:44:18;2.25;;;0.50;;
60853;SDS011;48554;50.766;2.900;2022-11-15T13:46:40;2.60;;;0.57;;
60853;SDS011;48554;50.766;2.900;2022-11-15T13:49:09;1.73;;;0.60;;
60853;SDS011;48554;50.766;2.900;2022-11-15T13:51:32;0.85;;;0.55;;
60853;SDS011;48554;50.766;2.900;2022-11-15T13:54:12;2.45;;;0.38;;
60853;SDS011;48554;50.766;2.900;2022-11-15T13:56:34;1.13;;;0.50;;
60853;SDS011;48554;50.766;2.900;2022-11-15T13:58:55;1.20;;;0.40;;
60853;SDS011;48554;50.766;2.900;2022-11-15T14:01:17;1.40;;;0.50;;
60853;SDS011;48554;50.766;2.900;2022-11-15T14:03:41;2.47;;;0.57;;
60853;SDS011;48554;50.766;2.900;2022-11-15T14:06:15;0.65;;;0.50;;
60853;SDS011;48554;50.766;2.900;2022-11-15T14:08:39;1.67;;;0.52;;
60853;SDS011;48554;50.766;2.900;2022-11-15T14:11:17;1.77;;;0.68;;
60853;SDS011;48554;50.766;2.900;2022-11-15T14:13:39;1.25;;;0.40;;
60853;SDS011;48554;50.766;2.900;2022-11-15T14:18:56;0.43;;;0.25;;
60853;SDS011;48554;50.766;2.900;2022-11-15T14:21:17;0.80;;;0.40;;
60853;SDS011;48554;50.766;2.900;2022-11-15T14:23:38;1.63;;;0.73;;
60853;SDS011;48554;50.766;2.900;2022-11-15T14:25:59;2.73;;;0.53;;
60853;SDS011;48554;50.766;2.900;2022-11-15T14:30:43;0.68;;;0.50;;
60853;SDS011;48554;50.766;2.900;2022-11-15T14:35:47;1.05;;;0.50;;
60853;SDS011;48554;50.766;2.900;2022-11-15T14:38:08;2.00;;;0.80;;
60853;SDS011;48554;50.766;2.900;2022-11-15T14:40:28;1.33;;;0.50;;
60853;SDS011;48554;50.766;2.900;2022-11-15T14:42:48;1.35;;;0.43;;
60853;SDS011;48554;50.766;2.900;2022-11-15T14:45:13;1.92;;;0.55;;
60853;SDS011;48554;50.766;2.900;2022-11-15T14:47:38;0.30;;;0.30;;
60853;SDS011;48554;50.766;2.900;2022-11-15T14:49:58;0.75;;;0.40;;
60853;SDS011;48554;50.766;2.900;2022-11-15T14:54:46;1.15;;;0.50;;
60853;SDS011;48554;50.766;2.900;2022-11-15T14:57:07;6.07;;;0.65;;
60853;SDS011;48554;50.766;2.900;2022-11-15T14:59:27;2.33;;;0.60;;
60853;SDS011;48554;50.766;2.900;2022-11-15T15:01:47;0.90;;;0.40;;
60853;SDS011;48554;50.766;2.900;2022-11-15T15:04:08;1.77;;;0.50;;
60853;SDS011;48554;50.766;2.900;2022-11-15T15:06:30;0.88;;;0.50;;
60853;SDS011;48554;50.766;2.900;2022-11-15T15:08:50;0.95;;;0.40;;
60853;SDS011;48554;50.766;2.900;2022-11-15T15:11:13;0.30;;;0.30;;
60853;SDS011;48554;50.766;2.900;2022-11-15T15:13:36;1.52;;;0.50;;
60853;SDS011;48554;50.766;2.900;2022-11-15T15:15:57;0.70;;;0.52;;
60853;SDS011;48554;50.766;2.900;2022-11-15T15:18:17;0.77;;;0.47;;
60853;SDS011;48554;50.766;2.900;2022-11-15T15:20:39;1.27;;;0.63;;
60853;SDS011;48554;50.766;2.900;2022-11-15T15:23:00;2.28;;;0.70;;
60853;SDS011;48554;50.766;2.900;2022-11-15T15:25:28;1.15;;;0.70;;
60853;SDS011;48554;50.766;2.900;2022-11-15T15:27:50;0.55;;;0.32;;
60853;SDS011;48554;50.766;2.900;2022-11-15T15:30:10;0.75;;;0.40;;
60853;SDS011;48554;50.766;2.900;2022-11-15T15:32:31;1.13;;;0.77;;
60853;SDS011;48554;50.766;2.900;2022-11-15T15:34:51;0.30;;;0.20;;
60853;SDS011;48554;50.766;2.900;2022-11-15T15:39:41;0.95;;;0.40;;
60853;SDS011;48554;50.766;2.900;2022-11-15T15:42:01;1.40;;;0.50;;
60853;SDS011;48554;50.766;2.900;2022-11-15T15:44:21;1.75;;;0.65;;
60853;SDS011;48554;50.766;2.900;2022-11-15T15:46:42;0.85;;;0.45;;
60853;SDS011;48554;50.766;2.900;2022-11-15T15:49:02;1.33;;;0.50;;
60853;SDS011;48554;50.766;2.900;2022-11-15T15:51:22;1.27;;;0.50;;
60853;SDS011;48554;50.766;2.900;2022-11-15T15:53:42;0.63;;;0.43;;
60853;SDS011;48554;50.766;2.900;2022-11-15T15:56:03;0.67;;;0.33;;
60853;SDS011;48554;50.766;2.900;2022-11-15T15:58:24;1.17;;;0.50;;
60853;SDS011;48554;50.766;2.900;2022-11-15T16:00:44;1.33;;;0.40;;
60853;SDS011;48554;50.766;2.900;2022-11-15T16:03:04;0.90;;;0.47;;
60853;SDS011;48554;50.766;2.900;2022-11-15T16:05:24;1.10;;;0.30;;
60853;SDS011;48554;50.766;2.900;2022-11-15T16:07:45;0.73;;;0.40;;
60853;SDS011;48554;50.766;2.900;2022-11-15T16:14:58;0.35;;;0.32;;
60853;SDS011;48554;50.766;2.900;2022-11-15T16:17:21;0.63;;;0.40;;
60853;SDS011;48554;50.766;2.900;2022-11-15T16:19:42;0.80;;;0.45;;